createdAt,value
2023-05-14T00:01:01.144Z,99870.45
2023-05-14T00:03:28.689Z,99867.84
2023-05-14T00:05:56.471Z,99869.33
2023-05-14T00:08:24.132Z,99869.38
2023-05-14T00:10:51.482Z,99868.91
2023-05-14T00:13:18.958Z,99871.81
2023-05-14T00:15:46.775Z,99874.50
2023-05-14T00:18:14.474Z,99873.13
2023-05-14T00:20:41.869Z,99874.50
2023-05-14T00:23:09.698Z,99879.81
2023-05-14T00:25:37.349Z,99880.00
2023-05-14T00:28:04.938Z,99878.99
2023-05-14T00:30:33.230Z,99881.00
2023-05-14T00:33:01.653Z,99875.23
2023-05-14T00:35:29.548Z,99875.39
2023-05-14T00:37:57.398Z,99877.58
2023-05-14T00:40:26.194Z,99879.54
2023-05-14T00:42:54.573Z,99876.23
2023-05-14T00:45:22.228Z,99875.60
2023-05-14T00:47:49.950Z,99871.94
2023-05-14T00:50:17.753Z,99869.87
2023-05-14T00:52:45.316Z,99872.77
2023-05-14T00:55:16.619Z,99873.27
2023-05-14T00:57:44.638Z,99873.90
2023-05-14T01:00:12.915Z,99876.69
2023-05-14T01:02:40.850Z,99875.88
2023-05-14T01:05:09.567Z,99878.45
2023-05-14T01:07:46.547Z,99881.56
2023-05-14T01:10:17.606Z,99879.52
2023-05-14T01:13:21.903Z,99878.27
2023-05-14T01:15:49.458Z,99880.85
2023-05-14T01:18:18.858Z,99881.16
2023-05-14T01:20:46.458Z,99881.36
2023-05-14T01:23:14.186Z,99880.01
2023-05-14T01:25:41.640Z,99883.13
2023-05-14T01:28:11.962Z,99882.23
2023-05-14T01:31:02.052Z,99881.31
2023-05-14T01:33:30.137Z,99883.02
2023-05-14T01:35:58.905Z,99881.10
2023-05-14T01:38:26.470Z,99878.69
2023-05-14T01:40:54.048Z,99883.88
2023-05-14T01:43:21.999Z,99879.41
2023-05-14T01:45:49.586Z,99879.70
2023-05-14T01:48:17.642Z,99882.11
2023-05-14T01:50:45.121Z,99883.88
2023-05-14T01:53:12.550Z,99883.88
2023-05-14T01:55:40.299Z,99880.44
2023-05-14T01:58:07.626Z,99881.37
2023-05-14T02:00:35.210Z,99883.13
2023-05-14T02:03:02.717Z,99882.86
2023-05-14T02:05:30.221Z,99882.95
2023-05-14T02:07:57.635Z,99884.46
2023-05-14T02:10:25.445Z,99885.38
2023-05-14T02:12:53.518Z,99884.25
2023-05-14T02:15:21.198Z,99883.45
2023-05-14T02:17:48.787Z,99882.71
2023-05-14T02:20:18.247Z,99883.23
2023-05-14T02:22:46.533Z,99887.38
2023-05-14T02:25:14.431Z,99884.97
2023-05-14T02:27:41.972Z,99882.02
2023-05-14T02:30:10.625Z,99885.00
2023-05-14T02:32:39.577Z,99881.05
2023-05-14T02:35:07.797Z,99881.26
2023-05-14T02:37:35.471Z,99877.48
2023-05-14T02:40:02.932Z,99881.66
2023-05-14T02:42:30.375Z,99881.02
2023-05-14T02:44:58.145Z,99878.39
2023-05-14T02:47:25.470Z,99878.06
2023-05-14T02:49:53.001Z,99877.90
2023-05-14T02:52:20.850Z,99879.53
2023-05-14T02:54:48.480Z,99879.11
2023-05-14T02:57:16.139Z,99879.38
2023-05-14T02:59:43.799Z,99878.80
2023-05-14T03:02:11.433Z,99881.70
2023-05-14T03:04:39.125Z,99880.09
2023-05-14T03:07:06.682Z,99880.73
2023-05-14T03:09:35.435Z,99881.34
2023-05-14T03:12:05.911Z,99880.52
2023-05-14T03:14:33.353Z,99881.92
2023-05-14T03:17:00.947Z,99883.55
2023-05-14T03:19:28.884Z,99885.69
2023-05-14T03:21:57.361Z,99884.46
2023-05-14T03:24:25.026Z,99887.10
2023-05-14T03:26:53.400Z,99889.56
2023-05-14T03:29:20.981Z,99889.29
2023-05-14T03:31:48.522Z,99890.25
2023-05-14T03:34:16.214Z,99891.76
2023-05-14T03:36:43.738Z,99895.79
2023-05-14T03:39:11.299Z,99898.67
2023-05-14T03:41:39.597Z,99901.20
2023-05-14T03:44:07.134Z,99902.23
2023-05-14T03:46:34.794Z,99900.70
2023-05-14T03:49:02.594Z,99902.31
2023-05-14T03:51:30.133Z,99905.68
2023-05-14T03:53:58.606Z,99905.09
2023-05-14T03:56:26.669Z,99904.91
2023-05-14T03:58:54.130Z,99901.83
2023-05-14T04:01:21.787Z,99901.27
2023-05-14T04:03:49.589Z,99896.97
2023-05-14T04:06:17.424Z,99898.88
2023-05-14T04:08:44.939Z,99896.61
2023-05-14T04:11:12.185Z,99893.80
2023-05-14T04:13:39.792Z,99895.72
2023-05-14T04:16:07.495Z,99896.83
2023-05-14T04:18:36.207Z,99895.42
2023-05-14T04:21:04.002Z,99895.15
2023-05-14T04:23:32.388Z,99893.09
2023-05-14T04:25:59.846Z,99895.05
2023-05-14T04:28:27.409Z,99894.30
2023-05-14T04:30:54.934Z,99893.29
2023-05-14T04:33:22.619Z,99897.32
2023-05-14T04:35:50.000Z,99902.80
2023-05-14T04:38:17.324Z,99906.52
2023-05-14T04:40:44.672Z,99908.52
2023-05-14T04:43:12.143Z,99906.66
2023-05-14T04:45:41.326Z,99904.96
2023-05-14T04:48:09.060Z,99902.75
2023-05-14T04:50:36.649Z,99902.38
2023-05-14T04:53:04.007Z,99906.15
2023-05-14T04:55:31.883Z,99901.27
2023-05-14T04:57:59.223Z,99903.60
2023-05-14T05:00:27.317Z,99902.43
2023-05-14T05:02:55.426Z,99905.80
2023-05-14T05:05:23.241Z,99903.21
2023-05-14T05:07:50.897Z,99904.39
2023-05-14T05:10:18.559Z,99901.05
2023-05-14T05:12:46.229Z,99902.14
2023-05-14T05:15:13.709Z,99898.53
2023-05-14T05:17:41.573Z,99896.42
2023-05-14T05:20:10.399Z,99900.71
2023-05-14T05:22:37.909Z,99900.19
2023-05-14T05:25:06.709Z,99902.86
2023-05-14T05:27:34.345Z,99907.76
2023-05-14T05:30:02.309Z,99907.21
2023-05-14T05:32:30.286Z,99908.04
2023-05-14T05:34:58.067Z,99910.81
2023-05-14T05:37:25.643Z,99910.45
2023-05-14T05:39:54.403Z,99912.52
2023-05-14T05:42:22.968Z,99911.20
2023-05-14T05:50:26.426Z,99920.00
2023-05-14T05:52:54.167Z,99918.71
2023-05-14T05:55:22.697Z,99915.42
2023-05-14T05:57:50.511Z,99911.58
2023-05-14T06:00:19.578Z,99909.71
2023-05-14T06:02:47.224Z,99904.58
2023-05-14T06:05:15.106Z,99906.48
2023-05-14T06:07:42.694Z,99903.98
2023-05-14T06:10:10.255Z,99901.14
2023-05-14T06:12:37.917Z,99898.60
2023-05-14T06:15:06.191Z,99898.16
2023-05-14T06:17:33.580Z,99904.36
2023-05-14T06:20:01.283Z,99903.15
2023-05-14T06:22:28.767Z,99902.20
2023-05-14T06:24:56.224Z,99904.88
2023-05-14T06:27:23.898Z,99904.73
2023-05-14T06:29:51.496Z,99899.44
2023-05-14T06:32:19.078Z,99900.16
2023-05-14T06:34:46.766Z,99898.09
2023-05-14T06:37:13.962Z,99902.35
2023-05-14T06:39:46.797Z,99906.14
2023-05-14T06:42:14.251Z,99899.13
2023-05-14T06:44:42.220Z,99901.50
2023-05-14T06:47:09.785Z,99895.94
2023-05-14T06:49:37.133Z,99896.59
2023-05-14T06:52:05.241Z,99895.17
2023-05-14T06:54:32.968Z,99889.36
2023-05-14T06:57:00.634Z,99887.92
2023-05-14T06:59:28.094Z,99885.52
2023-05-14T07:01:55.993Z,99886.86
2023-05-14T07:04:23.629Z,99886.96
2023-05-14T07:06:51.278Z,99886.00
2023-05-14T07:09:18.746Z,99882.45
2023-05-14T07:11:46.296Z,99881.66
2023-05-14T07:14:13.645Z,99881.34
2023-05-14T07:16:42.080Z,99874.15
2023-05-14T07:19:09.601Z,99872.81
2023-05-14T07:21:37.145Z,99875.58
2023-05-14T07:24:05.320Z,99872.03
2023-05-14T07:26:33.013Z,99871.94
2023-05-14T07:29:00.702Z,99867.52
2023-05-14T07:31:29.389Z,99866.52
2023-05-14T07:33:57.396Z,99863.63
2023-05-14T07:36:25.391Z,99866.83
2023-05-14T07:38:52.922Z,99861.55
2023-05-14T07:41:20.121Z,99859.05
2023-05-14T07:43:47.556Z,99860.42
2023-05-14T07:46:15.347Z,99862.96
2023-05-14T07:48:43.004Z,99856.27
2023-05-14T07:51:10.821Z,99855.73
2023-05-14T07:53:38.378Z,99851.67
2023-05-14T07:56:06.960Z,99856.61
2023-05-14T07:58:35.447Z,99856.65
2023-05-14T08:01:07.358Z,99859.98
2023-05-14T08:03:35.359Z,99857.87
2023-05-14T08:06:04.268Z,99850.32
2023-05-14T08:08:31.938Z,99851.80
2023-05-14T08:10:59.754Z,99849.69
2023-05-14T08:13:27.455Z,99851.02
2023-05-14T08:15:55.939Z,99848.48
2023-05-14T08:18:23.503Z,99844.49
2023-05-14T08:20:51.672Z,99840.00
2023-05-14T08:23:19.237Z,99842.63
2023-05-14T08:25:46.681Z,99841.61
2023-05-14T08:28:14.007Z,99840.41
2023-05-14T08:30:41.487Z,99837.89
2023-05-14T08:33:09.229Z,99837.88
2023-05-14T08:35:37.025Z,99839.48
2023-05-14T08:38:04.433Z,99838.09
2023-05-14T08:40:32.256Z,99832.06
2023-05-14T08:42:59.930Z,99826.70
2023-05-14T08:45:34.617Z,99833.70
2023-05-14T08:48:02.541Z,99828.61
2023-05-14T08:50:30.987Z,99827.96
2023-05-14T08:52:59.244Z,99828.63
2023-05-14T08:55:27.233Z,99819.05
2023-05-14T08:57:54.891Z,99817.27
2023-05-14T09:00:23.494Z,99818.39
2023-05-14T09:02:51.096Z,99808.76
2023-05-14T09:05:19.409Z,99805.85
2023-05-14T09:07:46.989Z,99805.53
2023-05-14T09:10:16.012Z,99799.86
2023-05-14T09:12:43.726Z,99798.58
2023-05-14T09:15:11.382Z,99799.14
2023-05-14T09:17:39.194Z,99793.96
2023-05-14T09:20:07.833Z,99794.23
2023-05-14T09:22:35.124Z,99787.03
2023-05-14T09:25:14.863Z,99784.15
2023-05-14T09:27:42.394Z,99780.29
2023-05-14T09:30:13.851Z,99778.03
2023-05-14T09:32:46.377Z,99776.86
2023-05-14T09:35:24.423Z,99766.91
2023-05-14T09:37:53.618Z,99761.14
2023-05-14T09:40:22.676Z,99759.54
2023-05-14T09:42:51.083Z,99759.95
2023-05-14T09:45:18.656Z,99759.98
2023-05-14T09:47:46.184Z,99753.66
2023-05-14T09:50:13.868Z,99754.10
2023-05-14T09:52:41.535Z,99748.43
2023-05-14T09:55:10.243Z,99749.33
2023-05-14T09:57:37.872Z,99746.23
2023-05-14T10:00:09.529Z,99745.38
2023-05-14T10:02:41.705Z,99743.52
2023-05-14T10:05:10.795Z,99741.02
2023-05-14T10:07:47.415Z,99737.21
2023-05-14T10:10:17.282Z,99736.36
2023-05-14T10:12:48.246Z,99728.38
2023-05-14T10:15:22.372Z,99727.39
2023-05-14T10:17:52.477Z,99724.45
2023-05-14T10:20:20.240Z,99718.06
2023-05-14T10:22:48.079Z,99720.52
2023-05-14T10:25:15.748Z,99711.10
2023-05-14T10:27:43.203Z,99719.48
2023-05-14T10:30:13.052Z,99714.58
2023-05-14T10:32:42.323Z,99714.44
2023-05-14T10:35:22.773Z,99711.03
2023-05-14T10:37:51.660Z,99715.13
2023-05-14T10:40:20.586Z,99706.30
2023-05-14T10:42:48.208Z,99699.84
2023-05-14T10:45:16.077Z,99700.87
2023-05-14T10:47:44.750Z,99700.79
2023-05-14T10:50:13.553Z,99693.45
2023-05-14T10:52:42.754Z,99693.08
2023-05-14T10:55:13.271Z,99693.96
2023-05-14T10:57:42.290Z,99692.69
2023-05-14T11:00:11.086Z,99687.20
2023-05-14T11:02:40.060Z,99686.79
2023-05-14T11:05:09.437Z,99685.51
2023-05-14T11:07:47.328Z,99688.20
2023-05-14T11:10:26.264Z,99676.86
2023-05-14T11:12:54.114Z,99686.18
2023-05-14T11:15:22.699Z,99680.04
2023-05-14T11:17:51.162Z,99677.23
2023-05-14T11:20:19.110Z,99669.45
2023-05-14T11:22:47.465Z,99665.66
2023-05-14T11:25:15.312Z,99661.98
2023-05-14T11:27:46.868Z,99663.15
2023-05-14T11:30:20.678Z,99646.27
2023-05-14T11:32:48.948Z,99651.08
2023-05-14T11:35:17.265Z,99657.14
2023-05-14T11:37:51.061Z,99649.69
2023-05-14T11:40:18.802Z,99648.87
2023-05-14T11:42:46.365Z,99643.71
2023-05-14T11:45:14.399Z,99637.38
2023-05-14T11:47:42.967Z,99636.22
2023-05-14T11:50:11.388Z,99635.84
2023-05-14T11:52:40.689Z,99639.34
2023-05-14T11:55:12.572Z,99648.27
2023-05-14T11:57:41.309Z,99645.41
2023-05-14T12:00:13.700Z,99644.98
2023-05-14T12:02:41.364Z,99646.20
2023-05-14T12:05:11.728Z,99652.48
2023-05-14T12:07:39.357Z,99647.20
2023-05-14T12:10:07.245Z,99647.23
2023-05-14T12:12:36.419Z,99643.55
2023-05-14T12:15:11.666Z,99655.10
2023-05-14T12:17:40.078Z,99653.10
2023-05-14T12:20:11.833Z,99659.48
2023-05-14T12:22:39.661Z,99666.17
2023-05-14T12:25:12.573Z,99685.41
2023-05-14T12:27:39.964Z,99695.89
2023-05-14T12:32:41.536Z,99703.08
2023-05-14T12:35:10.176Z,99710.69
2023-05-14T12:37:40.139Z,99720.25
2023-05-14T12:40:09.832Z,99731.88
2023-05-14T12:42:37.434Z,99744.42
2023-05-14T12:45:08.279Z,99744.79
2023-05-14T12:47:36.610Z,99746.46
2023-05-14T12:50:04.929Z,99747.33
2023-05-14T12:52:38.452Z,99747.55
2023-05-14T12:55:10.492Z,99743.41
2023-05-14T12:57:39.515Z,99740.77
2023-05-14T13:00:12.212Z,99748.28
2023-05-14T13:02:42.380Z,99754.48
2023-05-14T13:05:12.121Z,99789.98
2023-05-14T13:07:40.266Z,99801.86
2023-05-14T13:10:08.604Z,99797.20
2023-05-14T13:12:35.831Z,99778.30
2023-05-14T13:15:03.710Z,99783.25
2023-05-14T13:17:31.543Z,99766.00
2023-05-14T13:19:58.990Z,99755.53
2023-05-14T13:22:26.695Z,99734.67
2023-05-14T13:24:54.510Z,99726.65
2023-05-14T13:27:21.860Z,99724.29
2023-05-14T13:29:49.425Z,99721.96
2023-05-14T13:32:16.795Z,99724.38
2023-05-14T13:34:44.649Z,99719.89
2023-05-14T13:37:12.302Z,99720.83
2023-05-14T13:39:41.099Z,99718.85
2023-05-14T13:42:08.684Z,99716.27
2023-05-14T13:44:36.416Z,99715.09
2023-05-14T13:47:05.026Z,99713.42
2023-05-14T13:49:32.459Z,99714.48
2023-05-14T13:52:00.157Z,99714.31
2023-05-14T13:54:27.894Z,99719.09
2023-05-14T13:56:55.850Z,99717.38
2023-05-14T13:59:24.229Z,99711.61
2023-05-14T14:01:51.900Z,99708.04
2023-05-14T14:04:20.163Z,99709.61
2023-05-14T14:06:47.634Z,99707.86
2023-05-14T14:09:14.991Z,99702.70
2023-05-14T14:11:42.287Z,99700.67
2023-05-14T14:14:09.991Z,99705.05
2023-05-14T14:16:37.640Z,99701.52
2023-05-14T14:19:05.694Z,99701.88
2023-05-14T14:21:34.450Z,99701.98
2023-05-14T14:24:02.804Z,99700.30
2023-05-14T14:26:30.168Z,99697.34
2023-05-14T14:28:57.626Z,99698.02
2023-05-14T14:31:25.437Z,99696.27
2023-05-14T14:33:53.123Z,99701.84
2023-05-14T14:36:20.990Z,99704.06
2023-05-14T14:38:48.652Z,99700.16
2023-05-14T14:41:16.735Z,99702.39
2023-05-14T14:43:44.386Z,99699.26
2023-05-14T14:46:11.998Z,99699.42
2023-05-14T14:48:40.117Z,99695.67
2023-05-14T14:51:09.110Z,99690.88
2023-05-14T14:53:36.739Z,99688.95
2023-05-14T14:56:05.060Z,99693.53
2023-05-14T14:58:32.883Z,99694.32
2023-05-14T15:01:00.419Z,99689.27
2023-05-14T15:03:28.049Z,99686.06
2023-05-14T15:05:55.710Z,99681.89
2023-05-14T15:08:27.781Z,99679.54
2023-05-14T15:10:56.342Z,99674.45
2023-05-14T15:13:24.904Z,99678.65
2023-05-14T15:15:52.905Z,99679.69
2023-05-14T15:18:20.896Z,99681.63
2023-05-14T15:20:48.628Z,99677.86
2023-05-14T15:23:16.197Z,99679.23
2023-05-14T15:25:43.951Z,99680.05
2023-05-14T15:28:11.714Z,99682.63
2023-05-14T15:30:39.696Z,99683.34
2023-05-14T15:33:10.694Z,99682.73
2023-05-14T15:35:38.590Z,99685.23
2023-05-14T15:38:06.252Z,99683.70
2023-05-14T15:40:35.360Z,99682.21
2023-05-14T15:43:03.020Z,99681.00
2023-05-14T15:45:30.673Z,99680.13
2023-05-14T15:47:58.178Z,99677.65
2023-05-14T15:50:27.646Z,99681.42
2023-05-14T15:52:55.198Z,99682.12
2023-05-14T15:55:22.758Z,99681.83
2023-05-14T15:57:50.310Z,99685.15
2023-05-14T16:00:18.291Z,99685.66
2023-05-14T16:02:45.893Z,99687.43
2023-05-14T16:05:13.911Z,99694.30
2023-05-14T16:07:42.389Z,99699.66
2023-05-14T16:10:10.797Z,99703.60
2023-05-14T16:12:38.834Z,99702.67
2023-05-14T16:15:08.158Z,99701.59
2023-05-14T16:17:36.321Z,99701.90
2023-05-14T16:20:05.407Z,99703.58
2023-05-14T16:22:34.916Z,99703.36
2023-05-14T16:25:03.494Z,99703.48
2023-05-14T16:27:31.907Z,99703.28
2023-05-14T16:29:59.333Z,99704.64
2023-05-14T16:32:27.990Z,99705.61
2023-05-14T16:34:56.660Z,99702.96
2023-05-14T16:37:24.568Z,99707.91
2023-05-14T16:39:52.224Z,99709.80
2023-05-14T16:42:19.893Z,99717.97
2023-05-14T16:44:47.236Z,99728.15
2023-05-14T16:47:15.019Z,99733.44
2023-05-14T16:49:42.454Z,99732.96
2023-05-14T16:52:10.112Z,99734.36
2023-05-14T16:54:37.674Z,99737.44
2023-05-14T16:57:06.221Z,99747.70
2023-05-14T16:59:35.067Z,99754.30
2023-05-14T17:02:03.041Z,99751.07
2023-05-14T17:04:32.041Z,99746.05
2023-05-14T17:06:59.474Z,99737.69
2023-05-14T17:09:27.041Z,99737.73
2023-05-14T17:11:55.907Z,99734.96
2023-05-14T17:14:23.372Z,99724.06
2023-05-14T17:16:51.122Z,99720.27
2023-05-14T17:19:18.683Z,99724.42
2023-05-14T17:21:46.248Z,99724.58
2023-05-14T17:24:13.805Z,99730.05
2023-05-14T17:26:41.370Z,99730.79
2023-05-14T17:29:09.125Z,99732.38
2023-05-14T17:31:36.953Z,99732.92
2023-05-14T17:34:04.341Z,99736.48
2023-05-14T17:36:32.728Z,99735.46
2023-05-14T17:39:00.424Z,99741.40
2023-05-14T17:41:27.945Z,99740.92
2023-05-14T17:43:55.602Z,99740.88
2023-05-14T17:46:23.671Z,99746.04
2023-05-14T17:48:51.235Z,99745.33
2023-05-14T17:51:18.602Z,99747.03
2023-05-14T17:53:46.568Z,99753.25
2023-05-14T17:56:14.035Z,99750.91
2023-05-14T17:58:41.791Z,99752.98
2023-05-14T18:01:09.495Z,99749.77
2023-05-14T18:03:37.218Z,99750.61
2023-05-14T18:06:05.084Z,99755.45
2023-05-14T18:08:33.385Z,99752.70
2023-05-14T18:11:01.231Z,99750.02
2023-05-14T18:13:29.206Z,99749.25
2023-05-14T18:15:56.969Z,99747.02
2023-05-14T18:18:24.949Z,99748.42
2023-05-14T18:20:52.740Z,99746.70
2023-05-14T18:23:20.331Z,99746.20
2023-05-14T18:25:48.636Z,99743.19
2023-05-14T18:28:16.305Z,99743.81
2023-05-14T18:30:43.888Z,99741.17
2023-05-14T18:33:12.865Z,99741.23
2023-05-14T18:35:43.993Z,99737.27
2023-05-14T18:38:14.415Z,99736.38
2023-05-14T18:40:41.881Z,99735.41
2023-05-14T18:43:09.743Z,99737.14
2023-05-14T18:45:37.401Z,99737.30
2023-05-14T18:48:05.625Z,99738.13
2023-05-14T18:50:33.133Z,99734.52
2023-05-14T18:53:00.501Z,99734.61
2023-05-14T18:55:28.051Z,99733.04
2023-05-14T18:57:55.930Z,99732.84
2023-05-14T19:00:23.473Z,99733.53
2023-05-14T19:02:52.160Z,99735.36
2023-05-14T19:05:20.106Z,99732.44
2023-05-14T19:07:49.116Z,99734.64
2023-05-14T19:10:16.600Z,99732.69
2023-05-14T19:12:44.341Z,99734.96
2023-05-14T19:15:12.208Z,99734.95
2023-05-14T19:17:39.904Z,99736.85
2023-05-14T19:20:08.981Z,99738.16
2023-05-14T19:22:36.521Z,99742.23
2023-05-14T19:25:05.157Z,99738.91
2023-05-14T19:27:34.403Z,99741.02
2023-05-14T19:30:01.983Z,99744.80
2023-05-14T19:32:29.779Z,99744.30
2023-05-14T19:34:57.501Z,99738.81
2023-05-14T19:37:25.150Z,99741.07
2023-05-14T19:39:52.636Z,99740.11
2023-05-14T19:42:20.164Z,99734.00
2023-05-14T19:44:47.747Z,99735.23
2023-05-14T19:47:15.277Z,99732.50
2023-05-14T19:49:43.250Z,99733.42
2023-05-14T19:52:11.765Z,99728.73
2023-05-14T19:54:39.194Z,99732.54
2023-05-14T19:57:06.802Z,99734.10
2023-05-14T19:59:34.920Z,99734.33
2023-05-14T20:02:02.611Z,99733.27
2023-05-14T20:04:30.040Z,99731.11
2023-05-14T20:06:58.215Z,99725.63
2023-05-14T20:09:26.294Z,99724.16
2023-05-14T20:11:53.646Z,99723.69
2023-05-14T20:14:21.111Z,99724.75
2023-05-14T20:16:49.298Z,99727.36
2023-05-14T20:19:17.000Z,99728.58
2023-05-14T20:21:44.802Z,99727.24
2023-05-14T20:24:12.261Z,99728.91
2023-05-14T20:26:39.817Z,99728.29
2023-05-14T20:29:07.167Z,99728.17
2023-05-14T20:31:35.554Z,99726.43
2023-05-14T20:34:03.922Z,99726.85
2023-05-14T20:36:32.092Z,99729.32
2023-05-14T20:39:00.889Z,99725.04
2023-05-14T20:41:28.649Z,99725.50
2023-05-14T20:43:56.104Z,99724.45
2023-05-14T20:46:23.583Z,99725.44
2023-05-14T20:48:52.143Z,99728.70
2023-05-14T20:51:19.602Z,99724.27
2023-05-14T20:53:47.059Z,99727.38
2023-05-14T20:56:14.720Z,99726.38
2023-05-14T20:58:42.378Z,99725.67
2023-05-14T21:01:10.052Z,99723.58
2023-05-14T21:03:37.860Z,99724.67
2023-05-14T21:06:05.674Z,99721.98
2023-05-14T21:08:35.068Z,99721.38
2023-05-14T21:11:02.540Z,99724.70
2023-05-14T21:13:29.890Z,99725.88
2023-05-14T21:15:57.494Z,99725.30
2023-05-14T21:18:27.375Z,99726.11
2023-05-14T21:20:55.121Z,99728.35
2023-05-14T21:23:22.893Z,99729.07
2023-05-14T21:25:50.652Z,99728.77
2023-05-14T21:28:18.032Z,99731.27
2023-05-14T21:30:47.132Z,99728.17
2023-05-14T21:33:16.024Z,99726.64
2023-05-14T21:35:43.759Z,99722.59
2023-05-14T21:38:11.176Z,99725.45
2023-05-14T21:40:38.668Z,99721.52
2023-05-14T21:43:06.231Z,99723.58
2023-05-14T21:45:33.476Z,99720.17
2023-05-14T21:48:01.012Z,99717.89
2023-05-14T21:50:28.594Z,99716.14
2023-05-14T21:52:56.137Z,99714.98
2023-05-14T21:55:24.014Z,99715.08
2023-05-14T21:57:51.579Z,99713.80
2023-05-14T22:00:23.745Z,99711.52
2023-05-14T22:02:52.123Z,99707.17
2023-05-14T22:05:20.633Z,99702.73
2023-05-14T22:07:49.089Z,99704.16
2023-05-14T22:10:16.749Z,99700.41
2023-05-14T22:12:44.508Z,99700.41
2023-05-14T22:15:12.893Z,99700.02
2023-05-14T22:17:40.691Z,99696.46
2023-05-14T22:20:10.378Z,99698.44
2023-05-14T22:22:38.027Z,99693.13
2023-05-14T22:25:06.515Z,99690.80
2023-05-14T22:27:33.961Z,99686.79
2023-05-14T22:30:01.624Z,99688.63
2023-05-14T22:32:29.136Z,99688.89
2023-05-14T22:34:56.844Z,99688.63
2023-05-14T22:37:24.410Z,99689.77
2023-05-14T22:39:52.079Z,99685.95
2023-05-14T22:42:20.475Z,99686.44
2023-05-14T22:44:48.003Z,99684.11
2023-05-14T22:47:16.070Z,99681.96
2023-05-14T22:49:43.964Z,99679.89
2023-05-14T22:52:11.606Z,99681.13
2023-05-14T22:54:38.955Z,99676.38
2023-05-14T22:57:07.126Z,99676.15
2023-05-14T22:59:34.620Z,99676.33
2023-05-14T23:02:02.291Z,99673.33
2023-05-14T23:04:30.145Z,99669.63
2023-05-14T23:06:58.294Z,99669.96
2023-05-14T23:09:25.746Z,99670.50
2023-05-14T23:11:53.299Z,99667.05
2023-05-14T23:14:21.473Z,99667.73
2023-05-14T23:16:48.932Z,99665.23
2023-05-14T23:19:16.823Z,99668.11
2023-05-14T23:21:44.767Z,99665.97
2023-05-14T23:24:12.430Z,99665.02
2023-05-14T23:26:39.782Z,99665.18
2023-05-14T23:29:07.570Z,99658.91
2023-05-14T23:31:36.469Z,99657.30
2023-05-14T23:34:04.004Z,99659.02
2023-05-14T23:36:31.668Z,99654.23
2023-05-14T23:38:59.417Z,99655.61
2023-05-14T23:41:26.981Z,99653.93
2023-05-14T23:43:55.571Z,99652.63
2023-05-14T23:46:23.228Z,99651.10
2023-05-14T23:48:52.428Z,99651.36
2023-05-14T23:51:20.090Z,99650.95
2023-05-14T23:53:48.452Z,99653.95
2023-05-14T23:56:16.224Z,99652.55
2023-05-14T23:58:43.799Z,99654.55
